sensor_id;sensor_type;location;lat;lon;timestamp;pressure;altitude;pressure_sealevel;temperature;humidity
13414;BME280;6778;48.136;11.386;2023-03-14T00:01:31;93901.81;;;11.09;79.50
13414;BME280;6778;48.136;11.386;2023-03-14T00:04:04;93899.47;;;11.08;79.52
13414;BME280;6778;48.136;11.386;2023-03-14T00:06:35;93898.47;;;11.14;79.28
13414;BME280;6778;48.136;11.386;2023-03-14T00:09:05;93893.47;;;11.17;79.30
13414;BME280;6778;48.136;11.386;2023-03-14T00:11:35;93895.31;;;11.17;79.34
13414;BME280;6778;48.136;11.386;2023-03-14T00:14:05;93888.22;;;11.17;79.80
13414;BME280;6778;48.136;11.386;2023-03-14T00:16:36;93888.50;;;11.16;79.95
13414;BME280;6778;48.136;11.386;2023-03-14T00:19:09;93906.06;;;11.15;80.39
13414;BME280;6778;48.136;11.386;2023-03-14T00:21:39;93908.41;;;11.17;80.63
13414;BME280;6778;48.136;11.386;2023-03-14T00:24:10;93911.81;;;11.17;80.65
13414;BME280;6778;48.136;11.386;2023-03-14T00:26:40;93882.22;;;11.17;80.95
13414;BME280;6778;48.136;11.386;2023-03-14T00:29:10;93872.00;;;11.15;81.26
13414;BME280;6778;48.136;11.386;2023-03-14T00:31:40;93862.56;;;11.14;81.06
13414;BME280;6778;48.136;11.386;2023-03-14T00:34:13;93867.53;;;11.16;81.19
13414;BME280;6778;48.136;11.386;2023-03-14T00:36:44;93869.88;;;11.17;81.44
13414;BME280;6778;48.136;11.386;2023-03-14T00:39:15;93870.16;;;11.16;81.64
13414;BME280;6778;48.136;11.386;2023-03-14T00:41:45;93882.75;;;11.19;81.69
13414;BME280;6778;48.136;11.386;2023-03-14T00:44:15;93900.31;;;11.18;81.90
13414;BME280;6778;48.136;11.386;2023-03-14T00:46:46;93896.91;;;11.23;81.63
13414;BME280;6778;48.136;11.386;2023-03-14T00:49:19;93901.59;;;11.16;81.80
13414;BME280;6778;48.136;11.386;2023-03-14T00:51:52;93899.53;;;11.18;81.84
13414;BME280;6778;48.136;11.386;2023-03-14T00:54:23;93899.00;;;11.21;81.41
13414;BME280;6778;48.136;11.386;2023-03-14T00:56:53;93897.69;;;11.24;81.50
13414;BME280;6778;48.136;11.386;2023-03-14T00:59:24;93913.47;;;11.29;81.44
13414;BME280;6778;48.136;11.386;2023-03-14T01:01:54;93919.47;;;11.24;81.73
13414;BME280;6778;48.136;11.386;2023-03-14T01:04:27;93917.88;;;11.23;82.21
13414;BME280;6778;48.136;11.386;2023-03-14T01:06:58;93922.59;;;11.21;82.97
13414;BME280;6778;48.136;11.386;2023-03-14T01:09:28;93930.47;;;11.21;83.27
13414;BME280;6778;48.136;11.386;2023-03-14T01:11:58;93922.06;;;11.24;83.16
13414;BME280;6778;48.136;11.386;2023-03-14T01:14:28;93924.97;;;11.23;83.55
13414;BME280;6778;48.136;11.386;2023-03-14T01:16:58;93931.50;;;11.20;84.09
13414;BME280;6778;48.136;11.386;2023-03-14T01:19:31;93928.09;;;11.19;84.45
13414;BME280;6778;48.136;11.386;2023-03-14T01:22:02;93938.28;;;11.16;85.01
13414;BME280;6778;48.136;11.386;2023-03-14T01:24:32;93941.91;;;11.10;85.98
13414;BME280;6778;48.136;11.386;2023-03-14T01:27:02;93945.31;;;11.05;87.08
13414;BME280;6778;48.136;11.386;2023-03-14T01:29:33;93948.44;;;11.02;87.70
13414;BME280;6778;48.136;11.386;2023-03-14T01:32:03;93956.03;;;11.04;87.67
13414;BME280;6778;48.136;11.386;2023-03-14T01:34:37;93952.88;;;11.02;88.30
13414;BME280;6778;48.136;11.386;2023-03-14T01:37:07;93956.56;;;11.01;88.61
13414;BME280;6778;48.136;11.386;2023-03-14T01:39:39;93953.41;;;10.99;88.91
13414;BME280;6778;48.136;11.386;2023-03-14T01:42:10;93958.47;;;11.15;87.37
13414;BME280;6778;48.136;11.386;2023-03-14T01:44:49;93959.69;;;11.03;87.34
13414;BME280;6778;48.136;11.386;2023-03-14T01:47:21;93960.59;;;11.24;85.89
13414;BME280;6778;48.136;11.386;2023-03-14T01:49:58;93968.00;;;11.32;85.46
13414;BME280;6778;48.136;11.386;2023-03-14T01:52:33;93967.13;;;11.16;86.18
13414;BME280;6778;48.136;11.386;2023-03-14T01:55:09;93962.09;;;11.04;87.26
13414;BME280;6778;48.136;11.386;2023-03-14T01:57:45;93962.00;;;10.94;87.69
13414;BME280;6778;48.136;11.386;2023-03-14T02:00:21;93956.78;;;10.94;86.99
13414;BME280;6778;48.136;11.386;2023-03-14T02:02:56;93945.50;;;10.93;87.33
13414;BME280;6778;48.136;11.386;2023-03-14T02:05:35;93948.84;;;10.84;87.59
13414;BME280;6778;48.136;11.386;2023-03-14T02:08:15;93944.84;;;10.76;87.84
13414;BME280;6778;48.136;11.386;2023-03-14T02:10:51;93937.59;;;10.88;86.47
13414;BME280;6778;48.136;11.386;2023-03-14T02:13:32;93945.09;;;10.75;87.15
13414;BME280;6778;48.136;11.386;2023-03-14T02:16:36;93913.72;;;10.80;86.06
13414;BME280;6778;48.136;11.386;2023-03-14T02:20:00;93900.88;;;10.78;86.29
13414;BME280;6778;48.136;11.386;2023-03-14T02:22:42;93886.78;;;10.47;88.09
13414;BME280;6778;48.136;11.386;2023-03-14T02:25:22;93867.13;;;10.45;87.89
13414;BME280;6778;48.136;11.386;2023-03-14T02:27:58;93846.69;;;10.42;87.61
13414;BME280;6778;48.136;11.386;2023-03-14T02:30:33;93837.66;;;9.90;89.41
13414;BME280;6778;48.136;11.386;2023-03-14T02:33:07;93818.44;;;10.11;89.61
13414;BME280;6778;48.136;11.386;2023-03-14T02:35:42;93801.59;;;9.97;90.86
13414;BME280;6778;48.136;11.386;2023-03-14T02:38:20;93785.56;;;9.56;93.35
13414;BME280;6778;48.136;11.386;2023-03-14T02:40:53;93759.03;;;9.75;94.16
13414;BME280;6778;48.136;11.386;2023-03-14T02:43:26;93772.13;;;9.43;94.11
13414;BME280;6778;48.136;11.386;2023-03-14T02:46:01;93775.66;;;9.91;91.93
13414;BME280;6778;48.136;11.386;2023-03-14T02:48:37;93760.00;;;9.96;90.43
13414;BME280;6778;48.136;11.386;2023-03-14T02:51:12;93752.03;;;9.80;91.33
13414;BME280;6778;48.136;11.386;2023-03-14T02:53:47;93756.72;;;9.78;90.07
13414;BME280;6778;48.136;11.386;2023-03-14T02:56:17;93762.50;;;9.80;89.91
13414;BME280;6778;48.136;11.386;2023-03-14T02:58:49;93773.84;;;9.91;89.49
13414;BME280;6778;48.136;11.386;2023-03-14T03:01:28;93786.97;;;10.01;87.56
13414;BME280;6778;48.136;11.386;2023-03-14T03:03:59;93787.44;;;9.93;87.82
13414;BME280;6778;48.136;11.386;2023-03-14T03:06:30;93783.00;;;9.94;87.77
13414;BME280;6778;48.136;11.386;2023-03-14T03:09:00;93794.25;;;9.94;87.67
13414;BME280;6778;48.136;11.386;2023-03-14T03:11:30;93812.28;;;9.91;87.85
13414;BME280;6778;48.136;11.386;2023-03-14T03:14:06;93802.03;;;9.84;87.91
13414;BME280;6778;48.136;11.386;2023-03-14T03:16:36;93795.75;;;9.85;87.95
13414;BME280;6778;48.136;11.386;2023-03-14T03:19:06;93791.13;;;9.65;88.53
13414;BME280;6778;48.136;11.386;2023-03-14T03:21:37;93793.03;;;9.75;87.59
13414;BME280;6778;48.136;11.386;2023-03-14T03:24:07;93795.38;;;9.71;87.21
13414;BME280;6778;48.136;11.386;2023-03-14T03:26:39;93796.44;;;9.75;86.40
13414;BME280;6778;48.136;11.386;2023-03-14T03:29:13;93782.78;;;9.68;85.95
13414;BME280;6778;48.136;11.386;2023-03-14T03:31:43;93787.03;;;9.74;84.90
13414;BME280;6778;48.136;11.386;2023-03-14T03:34:14;93785.44;;;9.73;84.22
13414;BME280;6778;48.136;11.386;2023-03-14T03:36:48;93764.53;;;9.73;84.37
13414;BME280;6778;48.136;11.386;2023-03-14T03:39:19;93775.75;;;9.69;84.79
13414;BME280;6778;48.136;11.386;2023-03-14T03:41:49;93776.19;;;9.61;84.71
13414;BME280;6778;48.136;11.386;2023-03-14T03:44:22;93774.34;;;9.61;84.44
13414;BME280;6778;48.136;11.386;2023-03-14T03:46:52;93778.22;;;9.53;85.28
13414;BME280;6778;48.136;11.386;2023-03-14T03:49:22;93776.69;;;9.57;84.67
13414;BME280;6778;48.136;11.386;2023-03-14T03:51:52;93775.16;;;9.35;85.52
13414;BME280;6778;48.136;11.386;2023-03-14T03:54:23;93770.38;;;9.53;83.75
13414;BME280;6778;48.136;11.386;2023-03-14T03:56:53;93769.00;;;9.46;83.92
13414;BME280;6778;48.136;11.386;2023-03-14T03:59:27;93767.22;;;9.51;83.21
13414;BME280;6778;48.136;11.386;2023-03-14T04:01:57;93772.19;;;9.53;82.94
13414;BME280;6778;48.136;11.386;2023-03-14T04:04:27;93764.63;;;9.51;83.05
13414;BME280;6778;48.136;11.386;2023-03-14T04:07:00;93772.44;;;9.51;83.19
13414;BME280;6778;48.136;11.386;2023-03-14T04:09:31;93784.47;;;9.52;82.89
13414;BME280;6778;48.136;11.386;2023-03-14T04:12:22;93774.81;;;9.53;82.84
13414;BME280;6778;48.136;11.386;2023-03-14T04:15:08;93760.69;;;9.49;83.02
13414;BME280;6778;48.136;11.386;2023-03-14T04:17:44;93751.22;;;9.43;83.08
13414;BME280;6778;48.136;11.386;2023-03-14T04:20:15;93753.31;;;9.46;83.40
13414;BME280;6778;48.136;11.386;2023-03-14T04:22:46;93757.72;;;9.40;82.68
13414;BME280;6778;48.136;11.386;2023-03-14T04:25:17;93752.72;;;9.39;82.93
13414;BME280;6778;48.136;11.386;2023-03-14T04:27:52;93747.19;;;9.30;83.35
13414;BME280;6778;48.136;11.386;2023-03-14T04:30:29;93749.28;;;9.33;83.39
13414;BME280;6778;48.136;11.386;2023-03-14T04:33:09;93745.34;;;9.30;83.12
13414;BME280;6778;48.136;11.386;2023-03-14T04:35:53;93754.81;;;9.37;82.90
13414;BME280;6778;48.136;11.386;2023-03-14T04:38:24;93748.50;;;9.33;82.61
13414;BME280;6778;48.136;11.386;2023-03-14T04:40:55;93742.28;;;9.39;82.41
13414;BME280;6778;48.136;11.386;2023-03-14T04:43:30;93743.00;;;9.29;82.71
13414;BME280;6778;48.136;11.386;2023-03-14T04:46:09;93731.44;;;9.25;82.37
13414;BME280;6778;48.136;11.386;2023-03-14T04:48:40;93730.72;;;9.29;82.26
13414;BME280;6778;48.136;11.386;2023-03-14T04:51:11;93724.13;;;9.27;82.39
13414;BME280;6778;48.136;11.386;2023-03-14T04:53:41;93714.78;;;9.31;82.03
13414;BME280;6778;48.136;11.386;2023-03-14T04:56:13;93698.06;;;9.32;81.47
13414;BME280;6778;48.136;11.386;2023-03-14T04:58:44;93703.03;;;9.34;81.07
13414;BME280;6778;48.136;11.386;2023-03-14T05:01:19;93695.75;;;9.36;80.80
13414;BME280;6778;48.136;11.386;2023-03-14T05:04:19;93706.69;;;9.33;81.31
13414;BME280;6778;48.136;11.386;2023-03-14T05:07:10;93704.53;;;9.24;81.42
13414;BME280;6778;48.136;11.386;2023-03-14T05:09:49;93700.72;;;9.37;81.19
13414;BME280;6778;48.136;11.386;2023-03-14T05:12:30;93695.75;;;9.36;81.08
13414;BME280;6778;48.136;11.386;2023-03-14T05:15:26;93701.41;;;9.27;81.49
13414;BME280;6778;48.136;11.386;2023-03-14T05:18:12;93696.91;;;9.18;82.08
13414;BME280;6778;48.136;11.386;2023-03-14T05:21:06;93703.75;;;9.24;81.97
13414;BME280;6778;48.136;11.386;2023-03-14T05:24:05;93700.59;;;9.22;81.67
13414;BME280;6778;48.136;11.386;2023-03-14T05:27:13;93699.31;;;9.24;81.49
13414;BME280;6778;48.136;11.386;2023-03-14T05:29:54;93700.09;;;9.25;81.40
13414;BME280;6778;48.136;11.386;2023-03-14T05:32:40;93699.06;;;9.26;81.33
13414;BME280;6778;48.136;11.386;2023-03-14T05:35:31;93686.78;;;9.26;81.32
13414;BME280;6778;48.136;11.386;2023-03-14T05:38:20;93687.03;;;9.25;81.67
13414;BME280;6778;48.136;11.386;2023-03-14T05:41:07;93694.88;;;9.25;81.47
13414;BME280;6778;48.136;11.386;2023-03-14T05:43:56;93685.47;;;9.24;81.90
13414;BME280;6778;48.136;11.386;2023-03-14T05:46:38;93690.63;;;9.19;82.04
13414;BME280;6778;48.136;11.386;2023-03-14T05:49:29;93680.19;;;9.19;82.62
13414;BME280;6778;48.136;11.386;2023-03-14T05:52:32;93676.00;;;9.18;82.56
13414;BME280;6778;48.136;11.386;2023-03-14T05:55:10;93671.03;;;9.16;82.75
13414;BME280;6778;48.136;11.386;2023-03-14T05:58:06;93665.31;;;9.19;82.60
13414;BME280;6778;48.136;11.386;2023-03-14T06:01:02;93658.25;;;9.20;82.44
13414;BME280;6778;48.136;11.386;2023-03-14T06:03:46;93662.16;;;9.17;82.35
13414;BME280;6778;48.136;11.386;2023-03-14T06:06:17;93662.44;;;9.21;82.04
13414;BME280;6778;48.136;11.386;2023-03-14T06:08:50;93656.16;;;9.17;82.67
13414;BME280;6778;48.136;11.386;2023-03-14T06:11:20;93654.81;;;9.14;82.41
13414;BME280;6778;48.136;11.386;2023-03-14T06:13:51;93657.91;;;9.11;82.65
13414;BME280;6778;48.136;11.386;2023-03-14T06:16:21;93661.38;;;9.17;82.34
13414;BME280;6778;48.136;11.386;2023-03-14T06:18:53;93659.00;;;9.15;82.30
13414;BME280;6778;48.136;11.386;2023-03-14T06:21:23;93664.50;;;9.19;83.01
13414;BME280;6778;48.136;11.386;2023-03-14T06:23:57;93657.41;;;9.14;83.46
13414;BME280;6778;48.136;11.386;2023-03-14T06:26:30;93657.91;;;9.11;82.95
13414;BME280;6778;48.136;11.386;2023-03-14T06:29:00;93650.13;;;9.16;82.71
13414;BME280;6778;48.136;11.386;2023-03-14T06:31:32;93641.25;;;9.17;82.56
13414;BME280;6778;48.136;11.386;2023-03-14T06:34:05;93641.56;;;8.94;83.53
13414;BME280;6778;48.136;11.386;2023-03-14T06:36:35;93634.88;;;9.03;83.52
13414;BME280;6778;48.136;11.386;2023-03-14T06:39:08;93630.84;;;8.90;84.44
13414;BME280;6778;48.136;11.386;2023-03-14T06:41:43;93625.41;;;8.97;83.84
13414;BME280;6778;48.136;11.386;2023-03-14T06:44:15;93620.78;;;9.04;83.52
13414;BME280;6778;48.136;11.386;2023-03-14T06:46:46;93615.50;;;8.99;83.68
13414;BME280;6778;48.136;11.386;2023-03-14T06:49:17;93634.41;;;9.11;83.73
13414;BME280;6778;48.136;11.386;2023-03-14T06:51:50;93641.31;;;9.22;83.28
13414;BME280;6778;48.136;11.386;2023-03-14T06:54:23;93641.59;;;9.26;82.69
13414;BME280;6778;48.136;11.386;2023-03-14T06:56:54;93644.50;;;9.29;82.93
13414;BME280;6778;48.136;11.386;2023-03-14T06:59:24;93652.34;;;9.29;82.60
13414;BME280;6778;48.136;11.386;2023-03-14T07:01:55;93655.84;;;9.45;80.98
13414;BME280;6778;48.136;11.386;2023-03-14T07:04:26;93664.56;;;9.56;79.96
13414;BME280;6778;48.136;11.386;2023-03-14T07:06:58;93666.66;;;9.59;79.39
13414;BME280;6778;48.136;11.386;2023-03-14T07:09:30;93677.91;;;9.60;79.26
13414;BME280;6778;48.136;11.386;2023-03-14T07:12:01;93676.63;;;9.62;79.29
13414;BME280;6778;48.136;11.386;2023-03-14T07:14:32;93667.75;;;9.63;79.12
13414;BME280;6778;48.136;11.386;2023-03-14T07:17:01;93667.75;;;9.68;78.38
13414;BME280;6778;48.136;11.386;2023-03-14T07:19:32;93662.78;;;9.67;78.17
13414;BME280;6778;48.136;11.386;2023-03-14T07:22:02;93664.66;;;9.71;77.72
13414;BME280;6778;48.136;11.386;2023-03-14T07:24:36;93665.97;;;9.74;77.15
13414;BME280;6778;48.136;11.386;2023-03-14T07:27:08;93659.47;;;9.76;76.90
13414;BME280;6778;48.136;11.386;2023-03-14T07:29:39;93658.97;;;9.84;75.90
13414;BME280;6778;48.136;11.386;2023-03-14T07:32:09;93660.28;;;9.87;75.48
13414;BME280;6778;48.136;11.386;2023-03-14T07:34:42;93661.91;;;9.93;75.54
13414;BME280;6778;48.136;11.386;2023-03-14T07:37:13;93656.75;;;10.03;75.15
13414;BME280;6778;48.136;11.386;2023-03-14T07:39:47;93644.75;;;10.12;74.83
13414;BME280;6778;48.136;11.386;2023-03-14T07:42:21;93646.03;;;10.15;74.04
13414;BME280;6778;48.136;11.386;2023-03-14T07:44:55;93640.31;;;10.18;73.85
13414;BME280;6778;48.136;11.386;2023-03-14T07:47:25;93644.81;;;10.28;73.27
13414;BME280;6778;48.136;11.386;2023-03-14T07:49:55;93649.78;;;10.29;72.97
13414;BME280;6778;48.136;11.386;2023-03-14T07:52:25;93641.72;;;10.36;72.24
13414;BME280;6778;48.136;11.386;2023-03-14T07:54:58;93649.88;;;10.45;72.37
13414;BME280;6778;48.136;11.386;2023-03-14T07:57:28;93643.38;;;10.57;71.48
13414;BME280;6778;48.136;11.386;2023-03-14T07:59:57;93639.97;;;10.62;71.33
13414;BME280;6778;48.136;11.386;2023-03-14T08:02:27;93643.91;;;10.59;70.72
13414;BME280;6778;48.136;11.386;2023-03-14T08:04:58;93644.19;;;10.68;70.65
13414;BME280;6778;48.136;11.386;2023-03-14T08:07:31;93648.66;;;10.78;70.15
13414;BME280;6778;48.136;11.386;2023-03-14T08:10:05;93651.53;;;10.81;69.77
13414;BME280;6778;48.136;11.386;2023-03-14T08:12:36;93649.72;;;10.87;69.79
13414;BME280;6778;48.136;11.386;2023-03-14T08:15:07;93650.00;;;10.96;70.24
13414;BME280;6778;48.136;11.386;2023-03-14T08:17:37;93652.91;;;10.99;69.20
13414;BME280;6778;48.136;11.386;2023-03-14T08:20:10;93657.09;;;11.00;69.28
13414;BME280;6778;48.136;11.386;2023-03-14T08:22:42;93659.47;;;11.12;69.00
13414;BME280;6778;48.136;11.386;2023-03-14T08:25:16;93665.75;;;11.11;69.12
13414;BME280;6778;48.136;11.386;2023-03-14T08:27:47;93668.63;;;11.14;69.20
13414;BME280;6778;48.136;11.386;2023-03-14T08:30:19;93669.41;;;11.20;69.38
13414;BME280;6778;48.136;11.386;2023-03-14T08:32:53;93674.66;;;11.15;69.07
13414;BME280;6778;48.136;11.386;2023-03-14T08:35:30;93677.78;;;11.07;68.75
13414;BME280;6778;48.136;11.386;2023-03-14T08:38:03;93675.44;;;11.15;68.93
13414;BME280;6778;48.136;11.386;2023-03-14T08:40:37;93675.47;;;11.26;69.18
13414;BME280;6778;48.136;11.386;2023-03-14T08:43:07;93677.03;;;11.21;68.93
13414;BME280;6778;48.136;11.386;2023-03-14T08:45:37;93677.28;;;11.25;69.35
13414;BME280;6778;48.136;11.386;2023-03-14T08:48:07;93677.81;;;11.32;68.28
13414;BME280;6778;48.136;11.386;2023-03-14T08:50:40;93677.81;;;11.32;68.26
13414;BME280;6778;48.136;11.386;2023-03-14T08:53:10;93680.94;;;11.29;68.18
13414;BME280;6778;48.136;11.386;2023-03-14T08:55:43;93674.16;;;11.33;67.94
13414;BME280;6778;48.136;11.386;2023-03-14T08:58:14;93682.03;;;11.38;67.36
13414;BME280;6778;48.136;11.386;2023-03-14T09:00:44;93690.94;;;11.47;67.15
13414;BME280;6778;48.136;11.386;2023-03-14T09:03:14;93688.84;;;11.60;66.73
13414;BME280;6778;48.136;11.386;2023-03-14T09:05:45;93683.31;;;11.51;65.78
13414;BME280;6778;48.136;11.386;2023-03-14T09:08:17;93685.41;;;11.49;65.76
13414;BME280;6778;48.136;11.386;2023-03-14T09:10:52;93681.78;;;11.45;65.45
13414;BME280;6778;48.136;11.386;2023-03-14T09:13:24;93683.06;;;11.42;65.78
13414;BME280;6778;48.136;11.386;2023-03-14T09:15:55;93695.13;;;11.38;65.67
13414;BME280;6778;48.136;11.386;2023-03-14T09:18:26;93686.22;;;11.34;64.75
13414;BME280;6778;48.136;11.386;2023-03-14T09:20:57;93684.13;;;11.31;65.04
13414;BME280;6778;48.136;11.386;2023-03-14T09:23:28;93688.31;;;11.32;65.10
13414;BME280;6778;48.136;11.386;2023-03-14T09:26:00;93681.22;;;11.33;64.02
13414;BME280;6778;48.136;11.386;2023-03-14T09:28:31;93683.59;;;11.39;63.99
13414;BME280;6778;48.136;11.386;2023-03-14T09:31:05;93676.78;;;11.38;63.86
13414;BME280;6778;48.136;11.386;2023-03-14T09:33:36;93667.59;;;11.41;63.76
13414;BME280;6778;48.136;11.386;2023-03-14T09:36:07;93665.78;;;11.46;64.18
13414;BME280;6778;48.136;11.386;2023-03-14T09:38:38;93670.47;;;11.49;64.17
13414;BME280;6778;48.136;11.386;2023-03-14T09:41:18;93669.69;;;11.54;62.95
13414;BME280;6778;48.136;11.386;2023-03-14T09:44:01;93674.94;;;11.54;63.46
13414;BME280;6778;48.136;11.386;2023-03-14T09:46:36;93665.75;;;11.57;63.19
13414;BME280;6778;48.136;11.386;2023-03-14T09:49:13;93661.28;;;11.57;63.39
13414;BME280;6778;48.136;11.386;2023-03-14T09:51:50;93657.63;;;11.53;62.41
13414;BME280;6778;48.136;11.386;2023-03-14T09:54:31;93660.00;;;11.60;62.71
13414;BME280;6778;48.136;11.386;2023-03-14T09:57:08;93671.00;;;11.72;63.32
13414;BME280;6778;48.136;11.386;2023-03-14T09:59:44;93670.69;;;12.14;61.41
13414;BME280;6778;48.136;11.386;2023-03-14T10:02:20;93666.94;;;12.36;61.89
13414;BME280;6778;48.136;11.386;2023-03-14T10:04:53;93653.16;;;12.64;59.83
13414;BME280;6778;48.136;11.386;2023-03-14T10:07:28;93650.78;;;13.56;56.41
13414;BME280;6778;48.136;11.386;2023-03-14T10:09:59;93657.44;;;16.97;48.35
13414;BME280;6778;48.136;11.386;2023-03-14T10:12:34;93654.16;;;16.50;49.22
13414;BME280;6778;48.136;11.386;2023-03-14T10:15:09;93661.78;;;16.37;48.51
13414;BME280;6778;48.136;11.386;2023-03-14T10:17:48;93665.56;;;17.14;47.25
13414;BME280;6778;48.136;11.386;2023-03-14T10:20:31;93663.06;;;16.40;47.42
13414;BME280;6778;48.136;11.386;2023-03-14T10:23:05;93652.72;;;15.97;48.60
13414;BME280;6778;48.136;11.386;2023-03-14T10:25:38;93649.94;;;16.62;47.27
13414;BME280;6778;48.136;11.386;2023-03-14T10:28:25;93651.19;;;16.92;46.08
13414;BME280;6778;48.136;11.386;2023-03-14T10:30:56;93644.44;;;17.00;45.88
13414;BME280;6778;48.136;11.386;2023-03-14T10:33:29;93648.13;;;18.42;43.49
13414;BME280;6778;48.136;11.386;2023-03-14T10:36:01;93640.63;;;17.73;44.59
13414;BME280;6778;48.136;11.386;2023-03-14T10:38:33;93649.69;;;17.14;45.59
13414;BME280;6778;48.136;11.386;2023-03-14T10:41:17;93648.38;;;16.75;46.65
13414;BME280;6778;48.136;11.386;2023-03-14T10:43:56;93652.81;;;17.16;45.51
13414;BME280;6778;48.136;11.386;2023-03-14T10:46:32;93652.69;;;17.21;44.11
13414;BME280;6778;48.136;11.386;2023-03-14T10:49:27;93642.19;;;17.74;43.30
13414;BME280;6778;48.136;11.386;2023-03-14T10:52:02;93654.16;;;17.13;44.64
13414;BME280;6778;48.136;11.386;2023-03-14T10:54:47;93655.00;;;16.59;46.14
13414;BME280;6778;48.136;11.386;2023-03-14T10:57:20;93657.56;;;16.23;47.05
13414;BME280;6778;48.136;11.386;2023-03-14T10:59:55;93658.38;;;15.91;47.57
13414;BME280;6778;48.136;11.386;2023-03-14T11:02:44;93657.00;;;15.61;48.29
13414;BME280;6778;48.136;11.386;2023-03-14T11:05:28;93650.91;;;15.65;47.71
13414;BME280;6778;48.136;11.386;2023-03-14T11:08:04;93661.03;;;15.58;47.40
13414;BME280;6778;48.136;11.386;2023-03-14T11:10:39;93643.03;;;15.60;47.74
13414;BME280;6778;48.136;11.386;2023-03-14T11:13:17;93655.19;;;15.94;46.73
13414;BME280;6778;48.136;11.386;2023-03-14T11:16:02;93651.06;;;16.01;46.50
13414;BME280;6778;48.136;11.386;2023-03-14T11:18:51;93632.22;;;16.22;46.33
13414;BME280;6778;48.136;11.386;2023-03-14T11:21:32;93637.13;;;16.28;45.55
13414;BME280;6778;48.136;11.386;2023-03-14T11:24:21;93626.94;;;16.35;46.04
13414;BME280;6778;48.136;11.386;2023-03-14T11:27:00;93641.91;;;16.26;45.34
13414;BME280;6778;48.136;11.386;2023-03-14T11:29:39;93646.19;;;16.08;46.16
13414;BME280;6778;48.136;11.386;2023-03-14T11:32:19;93635.19;;;15.74;46.92
13414;BME280;6778;48.136;11.386;2023-03-14T11:34:54;93639.69;;;15.54;47.73
13414;BME280;6778;48.136;11.386;2023-03-14T11:37:31;93633.88;;;15.39;48.13
13414;BME280;6778;48.136;11.386;2023-03-14T11:40:12;93628.19;;;15.32;47.80
13414;BME280;6778;48.136;11.386;2023-03-14T11:42:46;93632.25;;;15.05;47.71
13414;BME280;6778;48.136;11.386;2023-03-14T11:45:22;93640.53;;;14.98;48.07
13414;BME280;6778;48.136;11.386;2023-03-14T11:48:13;93631.25;;;14.82;48.64
13414;BME280;6778;48.136;11.386;2023-03-14T11:50:50;93637.56;;;14.62;48.93
13414;BME280;6778;48.136;11.386;2023-03-14T11:53:36;93634.22;;;14.75;48.36
13414;BME280;6778;48.136;11.386;2023-03-14T11:56:17;93641.94;;;14.72;48.43
13414;BME280;6778;48.136;11.386;2023-03-14T11:58:57;93626.19;;;14.86;47.73
13414;BME280;6778;48.136;11.386;2023-03-14T12:01:42;93635.75;;;14.82;48.06
13414;BME280;6778;48.136;11.386;2023-03-14T12:04:33;93638.22;;;14.73;47.62
13414;BME280;6778;48.136;11.386;2023-03-14T12:07:15;93634.72;;;14.59;48.39
13414;BME280;6778;48.136;11.386;2023-03-14T12:09:50;93639.28;;;14.53;48.32
13414;BME280;6778;48.136;11.386;2023-03-14T12:12:24;93637.91;;;14.56;48.82
13414;BME280;6778;48.136;11.386;2023-03-14T12:14:59;93630.59;;;14.53;48.79
13414;BME280;6778;48.136;11.386;2023-03-14T12:17:36;93631.81;;;14.60;48.46
13414;BME280;6778;48.136;11.386;2023-03-14T12:20:17;93626.31;;;14.57;48.32
13414;BME280;6778;48.136;11.386;2023-03-14T12:22:51;93628.16;;;14.56;48.65
13414;BME280;6778;48.136;11.386;2023-03-14T12:25:24;93632.63;;;14.56;49.13
13414;BME280;6778;48.136;11.386;2023-03-14T12:28:19;93629.50;;;14.54;49.22
13414;BME280;6778;48.136;11.386;2023-03-14T12:30:51;93628.81;;;14.67;49.26
13414;BME280;6778;48.136;11.386;2023-03-14T12:33:29;93640.56;;;14.74;49.51
13414;BME280;6778;48.136;11.386;2023-03-14T12:36:05;93631.59;;;14.75;48.61
13414;BME280;6778;48.136;11.386;2023-03-14T12:38:59;93627.81;;;14.82;48.91
13414;BME280;6778;48.136;11.386;2023-03-14T12:41:38;93640.81;;;14.78;48.29
13414;BME280;6778;48.136;11.386;2023-03-14T12:44:38;93635.31;;;14.74;48.75
13414;BME280;6778;48.136;11.386;2023-03-14T12:50:23;93641.78;;;14.63;48.92
13414;BME280;6778;48.136;11.386;2023-03-14T12:56:01;93648.09;;;14.62;49.92
13414;BME280;6778;48.136;11.386;2023-03-14T12:58:39;93659.84;;;14.51;50.08
13414;BME280;6778;48.136;11.386;2023-03-14T13:01:18;93645.38;;;14.48;50.05
13414;BME280;6778;48.136;11.386;2023-03-14T13:03:52;93651.94;;;14.51;49.88
13414;BME280;6778;48.136;11.386;2023-03-14T13:06:48;93649.06;;;14.47;49.95
13414;BME280;6778;48.136;11.386;2023-03-14T13:09:51;93673.22;;;14.31;49.89
13414;BME280;6778;48.136;11.386;2023-03-14T13:12:27;93656.13;;;14.28;50.01
13414;BME280;6778;48.136;11.386;2023-03-14T13:15:01;93652.97;;;14.26;50.19
13414;BME280;6778;48.136;11.386;2023-03-14T13:17:40;93673.28;;;14.26;50.24
13414;BME280;6778;48.136;11.386;2023-03-14T13:20:16;93676.66;;;14.31;50.76
13414;BME280;6778;48.136;11.386;2023-03-14T13:22:49;93689.16;;;14.15;51.36
13414;BME280;6778;48.136;11.386;2023-03-14T13:25:22;93682.16;;;14.06;52.04
13414;BME280;6778;48.136;11.386;2023-03-14T13:27:53;93681.94;;;14.02;52.52
13414;BME280;6778;48.136;11.386;2023-03-14T13:30:28;93700.16;;;13.93;52.39
13414;BME280;6778;48.136;11.386;2023-03-14T13:33:04;93709.00;;;13.79;53.04
13414;BME280;6778;48.136;11.386;2023-03-14T13:35:40;93726.97;;;13.66;53.49
13414;BME280;6778;48.136;11.386;2023-03-14T13:38:18;93714.72;;;13.52;54.34
13414;BME280;6778;48.136;11.386;2023-03-14T13:40:55;93747.09;;;13.47;53.98
13414;BME280;6778;48.136;11.386;2023-03-14T13:43:30;93748.16;;;13.46;54.43
13414;BME280;6778;48.136;11.386;2023-03-14T13:46:04;93756.63;;;13.38;54.94
13414;BME280;6778;48.136;11.386;2023-03-14T13:48:42;93755.28;;;13.41;55.33
13414;BME280;6778;48.136;11.386;2023-03-14T13:51:17;93766.94;;;13.34;54.76
13414;BME280;6778;48.136;11.386;2023-03-14T13:53:50;93771.44;;;13.24;55.81
13414;BME280;6778;48.136;11.386;2023-03-14T13:56:26;93774.44;;;12.87;59.17